sensor_id;sensor_type;location;lat;lon;timestamp;pressure;altitude;pressure_sealevel;temperature;humidity
58658;BME280;44428;45.630;13.786;2022-10-26T00:00:38;101925.44;;;15.18;100.00
58658;BME280;44428;45.630;13.786;2022-10-26T00:03:03;101920.53;;;15.11;100.00
58658;BME280;44428;45.630;13.786;2022-10-26T00:05:31;101922.75;;;15.18;100.00
58658;BME280;44428;45.630;13.786;2022-10-26T00:07:56;101934.16;;;15.20;100.00
58658;BME280;44428;45.630;13.786;2022-10-26T00:10:22;101930.09;;;15.27;100.00
58658;BME280;44428;45.630;13.786;2022-10-26T00:12:50;101924.56;;;15.30;100.00
58658;BME280;44428;45.630;13.786;2022-10-26T00:15:19;101938.63;;;15.32;100.00
58658;BME280;44428;45.630;13.786;2022-10-26T00:17:46;101935.00;;;15.33;100.00
58658;BME280;44428;45.630;13.786;2022-10-26T00:20:11;101932.44;;;15.44;100.00
58658;BME280;44428;45.630;13.786;2022-10-26T00:22:37;101932.22;;;15.47;100.00
58658;BME280;44428;45.630;13.786;2022-10-26T00:25:03;101937.09;;;15.53;100.00
58658;BME280;44428;45.630;13.786;2022-10-26T00:27:28;101935.47;;;15.64;100.00
58658;BME280;44428;45.630;13.786;2022-10-26T00:29:54;101936.22;;;15.66;100.00
58658;BME280;44428;45.630;13.786;2022-10-26T00:32:19;101943.91;;;15.70;100.00
58658;BME280;44428;45.630;13.786;2022-10-26T00:34:45;101934.72;;;15.74;100.00
58658;BME280;44428;45.630;13.786;2022-10-26T00:37:11;101934.16;;;15.82;99.66
58658;BME280;44428;45.630;13.786;2022-10-26T00:39:36;101921.88;;;15.92;99.45
58658;BME280;44428;45.630;13.786;2022-10-26T00:42:02;101927.22;;;15.92;99.69
58658;BME280;44428;45.630;13.786;2022-10-26T00:47:15;101924.91;;;15.75;100.00
58658;BME280;44428;45.630;13.786;2022-10-26T00:49:43;101926.59;;;15.76;100.00
58658;BME280;44428;45.630;13.786;2022-10-26T00:52:10;101934.09;;;15.71;100.00
58658;BME280;44428;45.630;13.786;2022-10-26T00:54:37;101935.06;;;15.70;100.00
58658;BME280;44428;45.630;13.786;2022-10-26T00:57:02;101938.69;;;15.69;100.00
58658;BME280;44428;45.630;13.786;2022-10-26T00:59:28;101934.09;;;15.71;100.00
58658;BME280;44428;45.630;13.786;2022-10-26T01:01:53;101928.22;;;15.66;100.00
58658;BME280;44428;45.630;13.786;2022-10-26T01:04:19;101936.22;;;15.66;100.00
58658;BME280;44428;45.630;13.786;2022-10-26T01:06:45;101933.88;;;15.74;100.00
58658;BME280;44428;45.630;13.786;2022-10-26T01:09:11;101928.78;;;15.71;100.00
58658;BME280;44428;45.630;13.786;2022-10-26T01:11:37;101932.91;;;15.75;99.84
58658;BME280;44428;45.630;13.786;2022-10-26T01:14:03;101929.28;;;15.76;99.14
58658;BME280;44428;45.630;13.786;2022-10-26T01:27:03;101918.16;;;15.82;99.05
58658;BME280;44428;45.630;13.786;2022-10-26T01:31:57;101915.31;;;15.72;100.00
58658;BME280;44428;45.630;13.786;2022-10-26T01:34:28;101921.28;;;15.76;100.00
58658;BME280;44428;45.630;13.786;2022-10-26T01:36:57;101924.91;;;15.75;100.00
58658;BME280;44428;45.630;13.786;2022-10-26T01:39:27;101927.47;;;15.64;100.00
58658;BME280;44428;45.630;13.786;2022-10-26T01:41:56;101924.75;;;15.52;100.00
58658;BME280;44428;45.630;13.786;2022-10-26T01:44:24;101925.41;;;15.43;100.00
58658;BME280;44428;45.630;13.786;2022-10-26T01:46:53;101915.19;;;15.37;100.00
58658;BME280;44428;45.630;13.786;2022-10-26T01:49:25;101912.00;;;15.32;100.00
58658;BME280;44428;45.630;13.786;2022-10-26T01:51:51;101905.81;;;15.31;100.00
58658;BME280;44428;45.630;13.786;2022-10-26T01:54:17;101907.44;;;15.34;100.00
58658;BME280;44428;45.630;13.786;2022-10-26T01:56:43;101906.00;;;15.41;100.00
58658;BME280;44428;45.630;13.786;2022-10-26T02:07:24;101907.44;;;15.34;100.00
58658;BME280;44428;45.630;13.786;2022-10-26T02:10:09;101909.56;;;15.29;100.00
58658;BME280;44428;45.630;13.786;2022-10-26T02:12:48;101905.38;;;15.25;100.00
58658;BME280;44428;45.630;13.786;2022-10-26T02:15:19;101909.22;;;15.21;100.00
58658;BME280;44428;45.630;13.786;2022-10-26T02:20:21;101914.78;;;15.18;100.00
58658;BME280;44428;45.630;13.786;2022-10-26T02:22:49;101917.97;;;15.23;100.00
58658;BME280;44428;45.630;13.786;2022-10-26T02:25:26;101902.84;;;15.23;100.00
58658;BME280;44428;45.630;13.786;2022-10-26T02:27:54;101914.13;;;15.27;100.00
58658;BME280;44428;45.630;13.786;2022-10-26T02:30:21;101904.75;;;15.34;100.00
58658;BME280;44428;45.630;13.786;2022-10-26T02:32:49;101904.09;;;15.43;100.00
58658;BME280;44428;45.630;13.786;2022-10-26T02:35:15;101907.25;;;15.48;100.00
58658;BME280;44428;45.630;13.786;2022-10-26T02:37:43;101902.69;;;15.50;100.00
58658;BME280;44428;45.630;13.786;2022-10-26T02:40:10;101901.50;;;15.54;100.00
58658;BME280;44428;45.630;13.786;2022-10-26T02:42:38;101898.72;;;15.56;100.00
58658;BME280;44428;45.630;13.786;2022-10-26T02:45:08;101894.03;;;15.60;100.00
58658;BME280;44428;45.630;13.786;2022-10-26T02:47:36;101883.59;;;15.56;100.00
58658;BME280;44428;45.630;13.786;2022-10-26T02:50:02;101890.84;;;15.54;100.00
58658;BME280;44428;45.630;13.786;2022-10-26T02:52:44;101895.44;;;15.52;100.00
58658;BME280;44428;45.630;13.786;2022-10-26T02:55:16;101894.25;;;15.56;100.00
58658;BME280;44428;45.630;13.786;2022-10-26T02:57:46;101871.25;;;15.55;100.00
58658;BME280;44428;45.630;13.786;2022-10-26T03:00:14;101869.97;;;15.48;100.00
58658;BME280;44428;45.630;13.786;2022-10-26T03:02:41;101877.25;;;15.46;100.00
58658;BME280;44428;45.630;13.786;2022-10-26T03:05:14;101878.94;;;15.47;100.00
58658;BME280;44428;45.630;13.786;2022-10-26T03:07:42;101879.16;;;15.44;100.00
58658;BME280;44428;45.630;13.786;2022-10-26T03:10:07;101881.06;;;15.42;100.00
58658;BME280;44428;45.630;13.786;2022-10-26T03:12:33;101881.28;;;15.39;100.00
58658;BME280;44428;45.630;13.786;2022-10-26T03:14:59;101884.72;;;15.41;100.00
58658;BME280;44428;45.630;13.786;2022-10-26T03:17:24;101882.25;;;15.38;100.00
58658;BME280;44428;45.630;13.786;2022-10-26T03:19:50;101872.59;;;15.37;100.00
58658;BME280;44428;45.630;13.786;2022-10-26T03:22:15;101879.59;;;15.38;100.00
58658;BME280;44428;45.630;13.786;2022-10-26T03:24:41;101883.25;;;15.37;100.00
58658;BME280;44428;45.630;13.786;2022-10-26T03:27:06;101882.47;;;15.35;100.00
58658;BME280;44428;45.630;13.786;2022-10-26T03:29:31;101883.66;;;15.31;100.00
58658;BME280;44428;45.630;13.786;2022-10-26T03:31:57;101885.81;;;15.26;100.00
58658;BME280;44428;45.630;13.786;2022-10-26T03:34:23;101884.84;;;15.27;100.00
58658;BME280;44428;45.630;13.786;2022-10-26T03:36:48;101888.97;;;15.31;100.00
58658;BME280;44428;45.630;13.786;2022-10-26T03:39:13;101870.84;;;15.36;100.00
58658;BME280;44428;45.630;13.786;2022-10-26T03:41:39;101883.72;;;15.42;100.00
58658;BME280;44428;45.630;13.786;2022-10-26T03:44:05;101880.84;;;15.45;100.00
58658;BME280;44428;45.630;13.786;2022-10-26T03:46:31;101879.78;;;15.48;100.00
58658;BME280;44428;45.630;13.786;2022-10-26T03:48:56;101884.25;;;15.47;100.00
58658;BME280;44428;45.630;13.786;2022-10-26T03:51:22;101878.84;;;15.36;100.00
58658;BME280;44428;45.630;13.786;2022-10-26T03:53:47;101873.88;;;15.31;100.00
58658;BME280;44428;45.630;13.786;2022-10-26T03:56:13;101887.50;;;15.27;100.00
58658;BME280;44428;45.630;13.786;2022-10-26T03:58:38;101885.69;;;15.27;100.00
58658;BME280;44428;45.630;13.786;2022-10-26T04:01:04;101883.16;;;15.26;100.00
58658;BME280;44428;45.630;13.786;2022-10-26T04:03:29;101881.53;;;15.23;100.00
58658;BME280;44428;45.630;13.786;2022-10-26T04:05:55;101884.75;;;15.16;100.00
58658;BME280;44428;45.630;13.786;2022-10-26T04:08:22;101888.38;;;15.15;100.00
58658;BME280;44428;45.630;13.786;2022-10-26T04:10:47;101879.00;;;15.09;100.00
58658;BME280;44428;45.630;13.786;2022-10-26T04:13:13;101879.84;;;15.09;100.00
58658;BME280;44428;45.630;13.786;2022-10-26T04:15:39;101885.59;;;15.03;100.00
58658;BME280;44428;45.630;13.786;2022-10-26T04:18:04;101876.69;;;15.04;100.00
58658;BME280;44428;45.630;13.786;2022-10-26T04:20:30;101884.13;;;14.99;100.00
58658;BME280;44428;45.630;13.786;2022-10-26T04:22:56;101871.03;;;14.96;100.00
58658;BME280;44428;45.630;13.786;2022-10-26T04:25:22;101873.06;;;14.93;100.00
58658;BME280;44428;45.630;13.786;2022-10-26T04:27:47;101875.81;;;14.91;100.00
58658;BME280;44428;45.630;13.786;2022-10-26T04:30:13;101877.53;;;14.92;100.00
58658;BME280;44428;45.630;13.786;2022-10-26T04:32:38;101878.59;;;14.89;100.00
58658;BME280;44428;45.630;13.786;2022-10-26T04:35:04;101875.41;;;14.84;100.00
58658;BME280;44428;45.630;13.786;2022-10-26T04:37:29;101889.03;;;14.80;100.00
58658;BME280;44428;45.630;13.786;2022-10-26T04:39:55;101892.84;;;14.76;100.00
58658;BME280;44428;45.630;13.786;2022-10-26T04:42:20;101900.31;;;14.71;100.00
58658;BME280;44428;45.630;13.786;2022-10-26T04:44:46;101883.06;;;14.63;100.00
58658;BME280;44428;45.630;13.786;2022-10-26T04:47:11;101892.22;;;14.59;100.00
58658;BME280;44428;45.630;13.786;2022-10-26T04:49:37;101896.03;;;14.55;100.00
58658;BME280;44428;45.630;13.786;2022-10-26T04:52:04;101885.59;;;14.52;100.00
58658;BME280;44428;45.630;13.786;2022-10-26T04:54:29;101880.06;;;14.55;100.00
58658;BME280;44428;45.630;13.786;2022-10-26T04:56:55;101893.38;;;14.55;100.00
58658;BME280;44428;45.630;13.786;2022-10-26T04:59:20;101892.63;;;14.53;100.00
58658;BME280;44428;45.630;13.786;2022-10-26T05:01:46;101905.34;;;14.48;100.00
58658;BME280;44428;45.630;13.786;2022-10-26T05:04:11;101902.91;;;14.45;100.00
58658;BME280;44428;45.630;13.786;2022-10-26T05:06:37;101902.16;;;14.43;100.00
58658;BME280;44428;45.630;13.786;2022-10-26T05:09:02;101900.44;;;14.42;100.00
58658;BME280;44428;45.630;13.786;2022-10-26T05:11:28;101898.56;;;14.44;100.00
58658;BME280;44428;45.630;13.786;2022-10-26T05:13:54;101905.78;;;14.42;100.00
58658;BME280;44428;45.630;13.786;2022-10-26T05:16:19;101907.47;;;14.43;100.00
58658;BME280;44428;45.630;13.786;2022-10-26T05:18:46;101902.91;;;14.45;100.00
58658;BME280;44428;45.630;13.786;2022-10-26T05:21:13;101902.59;;;14.50;100.00
58658;BME280;44428;45.630;13.786;2022-10-26T05:23:44;101901.34;;;14.55;100.00
58658;BME280;44428;45.630;13.786;2022-10-26T05:26:11;101911.59;;;14.61;100.00
58658;BME280;44428;45.630;13.786;2022-10-26T05:28:36;101921.81;;;14.68;100.00
58658;BME280;44428;45.630;13.786;2022-10-26T05:31:02;101912.66;;;14.72;100.00
58658;BME280;44428;45.630;13.786;2022-10-26T05:33:27;101921.41;;;14.74;100.00
58658;BME280;44428;45.630;13.786;2022-10-26T05:35:53;101923.84;;;14.77;100.00
58658;BME280;44428;45.630;13.786;2022-10-26T05:38:19;101919.25;;;14.79;100.00
58658;BME280;44428;45.630;13.786;2022-10-26T05:40:45;101917.13;;;14.84;100.00
58658;BME280;44428;45.630;13.786;2022-10-26T05:43:11;101913.50;;;14.85;100.00
58658;BME280;44428;45.630;13.786;2022-10-26T05:45:37;101916.50;;;14.93;100.00
58658;BME280;44428;45.630;13.786;2022-10-26T05:48:03;101912.88;;;14.94;100.00
58658;BME280;44428;45.630;13.786;2022-10-26T05:50:29;101923.09;;;15.00;100.00
58658;BME280;44428;45.630;13.786;2022-10-26T05:52:54;101922.88;;;15.03;100.00
58658;BME280;44428;45.630;13.786;2022-10-26T05:55:20;101929.72;;;15.07;100.00
58658;BME280;44428;45.630;13.786;2022-10-26T05:57:46;101934.81;;;15.10;100.00
58658;BME280;44428;45.630;13.786;2022-10-26T06:00:15;101936.28;;;15.15;100.00
58658;BME280;44428;45.630;13.786;2022-10-26T06:02:52;101942.16;;;15.20;100.00
58658;BME280;44428;45.630;13.786;2022-10-26T06:05:23;101942.66;;;15.25;100.00
58658;BME280;44428;45.630;13.786;2022-10-26T06:07:50;101941.38;;;15.30;100.00
58658;BME280;44428;45.630;13.786;2022-10-26T06:10:16;101942.88;;;15.34;100.00
58658;BME280;44428;45.630;13.786;2022-10-26T06:12:43;101948.84;;;15.38;100.00
58658;BME280;44428;45.630;13.786;2022-10-26T06:15:18;101950.31;;;15.42;100.00
58658;BME280;44428;45.630;13.786;2022-10-26T06:17:48;101941.38;;;15.43;100.00
58658;BME280;44428;45.630;13.786;2022-10-26T06:25:22;101955.19;;;15.61;100.00
58658;BME280;44428;45.630;13.786;2022-10-26T06:30:36;101963.06;;;15.63;100.00
58658;BME280;44428;45.630;13.786;2022-10-26T06:33:02;101964.78;;;15.64;100.00
58658;BME280;44428;45.630;13.786;2022-10-26T06:37:54;101954.97;;;15.77;99.99
58658;BME280;44428;45.630;13.786;2022-10-26T06:40:21;101961.78;;;15.81;99.71
58658;BME280;44428;45.630;13.786;2022-10-26T06:42:47;101968.13;;;15.91;98.87
58658;BME280;44428;45.630;13.786;2022-10-26T06:45:13;101964.06;;;15.98;98.20
58658;BME280;44428;45.630;13.786;2022-10-26T06:47:54;101964.31;;;15.95;98.39
58658;BME280;44428;45.630;13.786;2022-10-26T06:50:54;101966.22;;;15.93;98.77
58658;BME280;44428;45.630;13.786;2022-10-26T06:53:25;101970.13;;;16.00;98.46
58658;BME280;44428;45.630;13.786;2022-10-26T06:55:53;101981.53;;;16.02;98.54
58658;BME280;44428;45.630;13.786;2022-10-26T06:58:20;101983.88;;;16.07;98.67
58658;BME280;44428;45.630;13.786;2022-10-26T07:00:48;101998.97;;;16.19;98.41
58658;BME280;44428;45.630;13.786;2022-10-26T07:03:15;101997.94;;;16.33;97.52
58658;BME280;44428;45.630;13.786;2022-10-26T07:05:40;102005.25;;;16.42;96.07
58658;BME280;44428;45.630;13.786;2022-10-26T07:08:07;102000.97;;;16.53;95.41
58658;BME280;44428;45.630;13.786;2022-10-26T07:10:32;101999.19;;;16.64;93.90
58658;BME280;44428;45.630;13.786;2022-10-26T07:12:59;102002.97;;;16.73;94.24
58658;BME280;44428;45.630;13.786;2022-10-26T07:15:25;102002.09;;;16.85;92.92
58658;BME280;44428;45.630;13.786;2022-10-26T07:17:50;102004.16;;;16.93;92.52
58658;BME280;44428;45.630;13.786;2022-10-26T07:20:17;102012.28;;;16.91;93.01
58658;BME280;44428;45.630;13.786;2022-10-26T07:22:42;102008.03;;;16.89;93.10
58658;BME280;44428;45.630;13.786;2022-10-26T07:25:08;102005.00;;;16.93;92.99
58658;BME280;44428;45.630;13.786;2022-10-26T07:27:34;102010.63;;;17.02;92.68
58658;BME280;44428;45.630;13.786;2022-10-26T07:30:00;102023.00;;;17.14;92.33
58658;BME280;44428;45.630;13.786;2022-10-26T07:32:26;102015.75;;;17.38;90.35
58658;BME280;44428;45.630;13.786;2022-10-26T07:34:51;102014.34;;;17.79;89.16
58658;BME280;44428;45.630;13.786;2022-10-26T07:37:17;102025.00;;;18.02;87.58
58658;BME280;44428;45.630;13.786;2022-10-26T07:39:42;102019.06;;;17.98;86.41
58658;BME280;44428;45.630;13.786;2022-10-26T07:42:08;102022.09;;;17.94;84.78
58658;BME280;44428;45.630;13.786;2022-10-26T07:44:33;102012.78;;;18.31;82.62
58658;BME280;44428;45.630;13.786;2022-10-26T07:46:59;102020.41;;;19.73;77.72
58658;BME280;44428;45.630;13.786;2022-10-26T07:49:25;102022.84;;;19.55;75.53
58658;BME280;44428;45.630;13.786;2022-10-26T07:51:50;102019.94;;;19.16;77.30
58658;BME280;44428;45.630;13.786;2022-10-26T07:54:16;102022.16;;;18.90;78.87
58658;BME280;44428;45.630;13.786;2022-10-26T07:56:41;102018.94;;;18.75;79.46
58658;BME280;44428;45.630;13.786;2022-10-26T07:59:07;102019.03;;;18.53;79.55
58658;BME280;44428;45.630;13.786;2022-10-26T08:01:32;102020.91;;;18.30;80.78
58658;BME280;44428;45.630;13.786;2022-10-26T08:03:58;102015.00;;;18.15;82.08
58658;BME280;44428;45.630;13.786;2022-10-26T08:06:23;102024.50;;;18.08;83.44
58658;BME280;44428;45.630;13.786;2022-10-26T08:08:49;102022.81;;;18.07;83.85
58658;BME280;44428;45.630;13.786;2022-10-26T08:11:16;102026.69;;;18.03;83.59
58658;BME280;44428;45.630;13.786;2022-10-26T08:13:41;102025.25;;;17.99;83.15
58658;BME280;44428;45.630;13.786;2022-10-26T08:16:07;102021.25;;;17.93;84.04
58658;BME280;44428;45.630;13.786;2022-10-26T08:18:33;102017.59;;;17.94;84.17
58658;BME280;44428;45.630;13.786;2022-10-26T08:21:02;102023.56;;;17.98;84.06
58658;BME280;44428;45.630;13.786;2022-10-26T08:23:29;102032.03;;;18.03;84.24
58658;BME280;44428;45.630;13.786;2022-10-26T08:25:58;102027.06;;;18.10;83.50
58658;BME280;44428;45.630;13.786;2022-10-26T08:28:24;102021.44;;;18.24;82.92
58658;BME280;44428;45.630;13.786;2022-10-26T08:30:50;102019.94;;;18.63;80.14
58658;BME280;44428;45.630;13.786;2022-10-26T08:33:15;102013.75;;;18.95;79.26
58658;BME280;44428;45.630;13.786;2022-10-26T08:35:41;102008.50;;;19.14;78.29
58658;BME280;44428;45.630;13.786;2022-10-26T08:38:06;102014.09;;;19.32;78.17
58658;BME280;44428;45.630;13.786;2022-10-26T08:40:33;102000.75;;;19.42;77.96
58658;BME280;44428;45.630;13.786;2022-10-26T08:43:03;102002.03;;;19.68;77.47
58658;BME280;44428;45.630;13.786;2022-10-26T08:45:37;102009.69;;;20.72;74.20
58658;BME280;44428;45.630;13.786;2022-10-26T08:48:11;102010.84;;;23.34;65.24
58658;BME280;44428;45.630;13.786;2022-10-26T08:50:40;102013.66;;;23.85;61.44
58658;BME280;44428;45.630;13.786;2022-10-26T08:53:19;102008.31;;;23.32;61.12
58658;BME280;44428;45.630;13.786;2022-10-26T08:55:58;102011.28;;;23.21;61.78
58658;BME280;44428;45.630;13.786;2022-10-26T08:58:39;102004.31;;;24.21;59.04
58658;BME280;44428;45.630;13.786;2022-10-26T09:01:08;102005.00;;;27.90;48.87
58658;BME280;44428;45.630;13.786;2022-10-26T09:03:34;102008.47;;;29.47;44.11
58658;BME280;44428;45.630;13.786;2022-10-26T09:16:22;102002.94;;;31.36;39.37
58658;BME280;44428;45.630;13.786;2022-10-26T09:18:54;102015.47;;;32.72;36.63
58658;BME280;44428;45.630;13.786;2022-10-26T09:26:25;102016.94;;;33.18;36.18
58658;BME280;44428;45.630;13.786;2022-10-26T09:28:53;102013.09;;;34.53;33.57
58658;BME280;44428;45.630;13.786;2022-10-26T09:31:20;102009.59;;;35.52;32.30
58658;BME280;44428;45.630;13.786;2022-10-26T09:33:46;102018.88;;;36.15;31.39
58658;BME280;44428;45.630;13.786;2022-10-26T09:36:13;102010.72;;;36.37;30.70
58658;BME280;44428;45.630;13.786;2022-10-26T09:38:57;102017.03;;;34.15;33.70
58658;BME280;44428;45.630;13.786;2022-10-26T09:41:28;102017.91;;;31.14;38.92
58658;BME280;44428;45.630;13.786;2022-10-26T09:43:57;102028.81;;;29.16;42.91
58658;BME280;44428;45.630;13.786;2022-10-26T09:46:27;102024.06;;;28.11;46.16
58658;BME280;44428;45.630;13.786;2022-10-26T09:48:56;102032.25;;;28.33;46.41
58658;BME280;44428;45.630;13.786;2022-10-26T09:51:23;102032.47;;;28.16;47.08
58658;BME280;44428;45.630;13.786;2022-10-26T09:53:52;102030.88;;;27.85;47.88
58658;BME280;44428;45.630;13.786;2022-10-26T09:56:18;102026.91;;;30.41;43.05
58658;BME280;44428;45.630;13.786;2022-10-26T09:58:53;102029.84;;;31.13;40.92
58658;BME280;44428;45.630;13.786;2022-10-26T10:06:38;102045.63;;;27.68;48.25
58658;BME280;44428;45.630;13.786;2022-10-26T10:09:05;102049.47;;;26.91;50.24
58658;BME280;44428;45.630;13.786;2022-10-26T10:14:05;102043.06;;;26.38;52.60
58658;BME280;44428;45.630;13.786;2022-10-26T10:16:31;102041.59;;;26.04;52.79
58658;BME280;44428;45.630;13.786;2022-10-26T10:18:57;102041.50;;;26.21;53.16
58658;BME280;44428;45.630;13.786;2022-10-26T10:23:59;102048.41;;;29.61;45.09
58658;BME280;44428;45.630;13.786;2022-10-26T10:26:24;102033.09;;;31.68;40.17
58658;BME280;44428;45.630;13.786;2022-10-26T10:28:57;102045.47;;;32.85;37.06
58658;BME280;44428;45.630;13.786;2022-10-26T10:31:29;102051.00;;;33.29;36.64
58658;BME280;44428;45.630;13.786;2022-10-26T10:33:55;102050.75;;;31.72;38.80
58658;BME280;44428;45.630;13.786;2022-10-26T10:36:22;102054.53;;;30.25;41.44
58658;BME280;44428;45.630;13.786;2022-10-26T10:38:49;102054.09;;;29.66;43.41
58658;BME280;44428;45.630;13.786;2022-10-26T10:41:25;102055.91;;;31.35;40.25
58658;BME280;44428;45.630;13.786;2022-10-26T10:43:58;102053.13;;;32.07;39.11
58658;BME280;44428;45.630;13.786;2022-10-26T10:46:25;102052.84;;;33.10;36.74
58658;BME280;44428;45.630;13.786;2022-10-26T10:48:52;102056.31;;;33.42;36.29
58658;BME280;44428;45.630;13.786;2022-10-26T10:51:19;102053.47;;;33.74;35.71
58658;BME280;44428;45.630;13.786;2022-10-26T10:53:49;102050.78;;;34.16;34.27
58658;BME280;44428;45.630;13.786;2022-10-26T10:56:31;102045.50;;;34.33;34.35
58658;BME280;44428;45.630;13.786;2022-10-26T11:01:30;102043.75;;;34.08;34.40
58658;BME280;44428;45.630;13.786;2022-10-26T11:06:40;102044.09;;;30.35;40.72
58658;BME280;44428;45.630;13.786;2022-10-26T11:09:10;102046.47;;;29.20;43.67
58658;BME280;44428;45.630;13.786;2022-10-26T11:11:39;102045.66;;;28.77;45.08
58658;BME280;44428;45.630;13.786;2022-10-26T11:14:07;102043.69;;;30.65;41.47
58658;BME280;44428;45.630;13.786;2022-10-26T11:16:49;102046.22;;;30.60;41.47
58658;BME280;44428;45.630;13.786;2022-10-26T11:19:27;102040.38;;;28.97;44.71
58658;BME280;44428;45.630;13.786;2022-10-26T11:21:54;102037.41;;;28.92;45.10
58658;BME280;44428;45.630;13.786;2022-10-26T11:24:34;102031.56;;;30.87;41.83
58658;BME280;44428;45.630;13.786;2022-10-26T11:32:21;102034.41;;;30.26;42.14
58658;BME280;44428;45.630;13.786;2022-10-26T11:34:49;102041.19;;;30.56;41.22
58658;BME280;44428;45.630;13.786;2022-10-26T11:37:22;102039.28;;;29.89;42.94
58658;BME280;44428;45.630;13.786;2022-10-26T11:42:35;102046.47;;;28.35;45.89
58658;BME280;44428;45.630;13.786;2022-10-26T11:45:16;102049.22;;;27.24;49.12
58658;BME280;44428;45.630;13.786;2022-10-26T11:47:54;102047.81;;;26.90;50.57
58658;BME280;44428;45.630;13.786;2022-10-26T11:50:23;102049.22;;;27.01;50.66
58658;BME280;44428;45.630;13.786;2022-10-26T11:53:08;102048.50;;;26.69;50.64
58658;BME280;44428;45.630;13.786;2022-10-26T11:55:35;102032.75;;;26.65;51.25
58658;BME280;44428;45.630;13.786;2022-10-26T11:58:02;102041.66;;;26.73;51.85
58658;BME280;44428;45.630;13.786;2022-10-26T12:00:28;102048.25;;;27.17;50.49
58658;BME280;44428;45.630;13.786;2022-10-26T12:03:07;102048.78;;;28.16;48.07
58658;BME280;44428;45.630;13.786;2022-10-26T12:08:20;102046.38;;;30.25;42.56
58658;BME280;44428;45.630;13.786;2022-10-26T12:10:50;102049.22;;;30.78;41.18
58658;BME280;44428;45.630;13.786;2022-10-26T12:13:27;102039.09;;;31.18;39.92
58658;BME280;44428;45.630;13.786;2022-10-26T12:20:59;102039.69;;;32.05;38.46
58658;BME280;44428;45.630;13.786;2022-10-26T12:23:33;102041.41;;;32.00;37.97
58658;BME280;44428;45.630;13.786;2022-10-26T12:28:43;102037.59;;;32.01;38.57
58658;BME280;44428;45.630;13.786;2022-10-26T12:33:53;102036.78;;;32.00;38.76
58658;BME280;44428;45.630;13.786;2022-10-26T12:39:23;102048.19;;;31.90;38.63
58658;BME280;44428;45.630;13.786;2022-10-26T12:41:53;102043.13;;;31.87;39.02
58658;BME280;44428;45.630;13.786;2022-10-26T12:44:38;102040.72;;;31.53;39.42
58658;BME280;44428;45.630;13.786;2022-10-26T12:47:06;102044.97;;;31.22;40.12
58658;BME280;44428;45.630;13.786;2022-10-26T12:52:16;102041.19;;;31.10;40.47
58658;BME280;44428;45.630;13.786;2022-10-26T12:54:44;102036.59;;;30.90;41.04
58658;BME280;44428;45.630;13.786;2022-10-26T12:57:21;102045.16;;;29.86;42.83
58658;BME280;44428;45.630;13.786;2022-10-26T12:59:55;102046.22;;;29.85;43.60
58658;BME280;44428;45.630;13.786;2022-10-26T13:02:29;102031.97;;;29.89;43.42
58658;BME280;44428;45.630;13.786;2022-10-26T13:07:44;102036.09;;;29.44;44.52
58658;BME280;44428;45.630;13.786;2022-10-26T13:12:46;102037.09;;;29.64;44.47
58658;BME280;44428;45.630;13.786;2022-10-26T13:15:19;102038.41;;;29.69;44.21
58658;BME280;44428;45.630;13.786;2022-10-26T13:20:57;102039.09;;;29.49;44.91
58658;BME280;44428;45.630;13.786;2022-10-26T13:23:27;102033.22;;;29.52;44.44
58658;BME280;44428;45.630;13.786;2022-10-26T13:26:03;102037.00;;;28.95;45.75
58658;BME280;44428;45.630;13.786;2022-10-26T13:30:58;102034.94;;;28.97;46.08
58658;BME280;44428;45.630;13.786;2022-10-26T13:33:29;102040.69;;;29.02;46.48
58658;BME280;44428;45.630;13.786;2022-10-26T13:35:57;102040.69;;;29.02;46.17
58658;BME280;44428;45.630;13.786;2022-10-26T13:38:23;102037.13;;;28.22;47.57
58658;BME280;44428;45.630;13.786;2022-10-26T13:40:50;102032.72;;;28.00;48.35
58658;BME280;44428;45.630;13.786;2022-10-26T13:43:20;102034.31;;;27.64;49.46
58658;BME280;44428;45.630;13.786;2022-10-26T13:48:17;102028.25;;;27.48;50.11
58658;BME280;44428;45.630;13.786;2022-10-26T13:50:51;102038.09;;;27.11;50.64
58658;BME280;44428;45.630;13.786;2022-10-26T13:53:19;102036.97;;;26.90;51.56
58658;BME280;44428;45.630;13.786;2022-10-26T13:55:49;102042.13;;;26.77;52.00
58658;BME280;44428;45.630;13.786;2022-10-26T14:01:02;102034.63;;;26.10;53.73
58658;BME280;44428;45.630;13.786;2022-10-26T14:03:28;102033.91;;;25.77;54.52
58658;BME280;44428;45.630;13.786;2022-10-26T14:05:53;102023.09;;;25.77;55.18
58658;BME280;44428;45.630;13.786;2022-10-26T14:08:19;102016.69;;;25.70;54.93
58658;BME280;44428;45.630;13.786;2022-10-26T14:10:55;102022.31;;;25.60;55.03
58658;BME280;44428;45.630;13.786;2022-10-26T14:13:24;102027.22;;;25.56;55.21
58658;BME280;44428;45.630;13.786;2022-10-26T14:15:50;102022.28;;;25.21;56.32
58658;BME280;44428;45.630;13.786;2022-10-26T14:18:24;102025.97;;;25.20;56.67
58658;BME280;44428;45.630;13.786;2022-10-26T14:21:12;102033.41;;;25.09;56.23
58658;BME280;44428;45.630;13.786;2022-10-26T14:23:36;102021.09;;;24.90;57.01
58658;BME280;44428;45.630;13.786;2022-10-26T14:26:17;102029.38;;;24.64;57.94
58658;BME280;44428;45.630;13.786;2022-10-26T14:28:45;102034.00;;;24.30;59.36
58658;BME280;44428;45.630;13.786;2022-10-26T14:31:13;102037.69;;;24.12;60.35